Aérodrome :
LOGIN :

S'inscrire | Disclaimer

   EN    FR    IT 

 










Légende :    VFR   VFR Marginal   IFR   IFR Intensif   IFR Très Intensif
Visi : 
Plafond : 
>= 8 km
>= 3000ft
5 à 8 km
1000 à 3000 ft
1500m à 5 km
500 à 1000 ft
800 à 1500m
200 à 500 ft
< 800m
< 200 ft
Symboles :   Orages  Brouillard  Fortes neiges  Fortes précipitations  Vent > 20 kt
SIGMETs :   Divers  Orages  Givrage  Turbulence  Onde Orograph.  Cendres Volcan.







- Altitude de l'aérodrome : 32 ft
- Code IATA : LKZ


EGUL - RAF Lakenheath

DERNIER METAR :
  • 280652Z AUTO 36013KT 9999 +RA SCT008 BKN029 OVC065 14/14 A2942 RMK AO2 CIG 008V031 SLP966

METARs EXPIRÉS :
  • 280644Z AUTO 36011KT 9999 +RA BKN009 OVC031 14/14 A2942 RMK AO2 CIG 007V037 BKN V SCT SLP966
  • 280617Z AUTO 01010KT 9999 +RA BKN007 OVC020 14/14 A2944 RMK AO2 SLP973
  • 280606Z AUTO 01011KT 9999 RA BR BKN006 BKN011 OVC022 14/14 A2944 RMK AO2 SLP973
  • 280558Z AUTO 02011KT 9000 +RA BR BKN007 BKN011 OVC020 14/14 A2944 RMK AO2 CIG 002 RWY24 SLP973 P0024 60086 T01420142 10145 20141 57017
  • 280553Z AUTO 02011G16KT 8000 +RA BR BKN007 BKN011 OVC018 14/14 A2945 RMK AO2 CIG 002 RWY24 SLP976
  • 280542Z AUTO 02008KT 8000 +RA BR BKN006 BKN010 OVC016 14/14 A2945 RMK AO2 CIG 002 RWY24 SLP976
  • 280507Z AUTO 02008KT 9999 +RA BKN007 OVC025 14/14 A2945 RMK AO2 CIG 007V026 BKN V SCT SLP976
  • 280459Z AUTO 02008KT 9000 +RA BR SCT007 OVC026 14/14 A2946 RMK AO2 CIG 024V029 CIG 006 RWY24 SLPNO
  • 280423Z AUTO 02008KT 9999 RA SCT007 OVC025 15/15 A2946 RMK AO2 CIG 020V025 SLP979
  • 280410Z AUTO 02009KT 9999 +RA SCT006 OVC024 15/15 A2947 RMK AO2 CIG 014 RWY24 SLP983
  • 280358Z AUTO 02009KT 9000 +RA BR FEW006 OVC026 14/14 A2947 RMK AO2 CIG 020V026 CIG 015 RWY24 SLP983 P0015

TAF AMD TAF EGUL
Valide du 28 à 05h jusqu'au 29 à 10h UTC


280520Z 2805/2910 01012KT 5000 -RA BKN007 610809 QNH2947INS
TEMPO 2805/2807 BKN025
BECMG 2809/2810 35009KT 9999 NSW BKN006 610809 QNH2951INS
TEMPO 2812/2816 32015G20KT
BECMG 2901/2902 23012KT 9999 BKN010 610809 QNH2956INS
TEMPO 2906/2908 BKN007 TX15/2812Z TN12/2903Z
Pas de NOTAMs connus pour ce terrain.
1 SIGMET publié pour la FIR London (EGTT) :
 
Orages noyés dans la masse
EGTT SIGMET 01 VALID 280600/280800 EGRR
EGTT LONDON FIR EMBD TS OBS WI N5255 E00110 - N5348 E00110 - N5349 E00356 - N5255 E00309 - N5255 E00110 TOP FL370 MOV NNW 15KT NC=



MET'MAP, la Météo Aéronautique d'un coup d'oeil ! - Copyright ORBIFLY Décembre 2007 - Disclaimer

ORBIFLY MET'MAP TEAM :

Programmation & Développement : Alexandra Zaïnal
Conception & Développement : Baudouin d'Aumeries
Co-Programmation & Développement : Marc-Olivier Méhu
Soutien technique & logistique : Manuel Goepfert

Contact : metmap@orbifly.com




SOURCES & CREDITS :

   NOAA